Time;durP1;ratioP1;P1;durP2;ratioP2;P2;SDS_P1;SDS_P2;PMS_P1;PMS_P2;Temp;Humidity;BMP_temperature;BMP_pressure;BME280_temperature;BME280_humidity;BME280_pressure;Samples;Min_cycle;Max_cycle;Signal;HPM_P1;HPM_P2
2024/04/19 00:01:16;;;;;;;;;;;;;;;8.71;100.00;101739.31;5506751;26;20358;-92
2024/04/19 00:03:41;;;;;;;;;;;;;;;8.69;100.00;101738.59;5488936;26;19928;-91
2024/04/19 00:06:07;;;;;;;;;;;;;;;8.62;100.00;101741.97;5521428;25;19927;-90
2024/04/19 00:08:33;;;;;;;;;;;;;;;8.55;100.00;101747.06;5522021;25;19940;-91
2024/04/19 00:10:59;;;;;;;;;;;;;;;8.51;100.00;101745.63;5497371;26;19928;-91
2024/04/19 00:13:27;;;;;;;;;;;;;;;8.48;100.00;101754.78;5467617;26;20373;-90
2024/04/19 00:15:53;;;;;;;;;;;;;;;8.47;100.00;101744.22;5498175;26;19928;-91
2024/04/19 00:18:18;;;;;;;;;;;;;;;8.46;100.00;101745.19;5498329;26;20243;-90
2024/04/19 00:20:44;;;;;;;;;;;;;;;8.45;100.00;101746.19;5528215;26;20262;-90
2024/04/19 00:23:09;;;;;;;;;;;;;;;8.43;100.00;101749.00;5467425;26;19935;-91
2024/04/19 00:25:35;;;;;;;;;;;;;;;8.43;100.00;101750.84;5498104;26;19935;-91
2024/04/19 00:28:01;;;;;;;;;;;;;;;8.42;100.00;101750.00;5528609;26;20358;-89
2024/04/19 00:30:26;;;;;;;;;;;;;;;8.40;100.00;101737.72;5497366;26;19931;-90
2024/04/19 00:32:52;;;;;;;;;;;;;;;8.38;100.00;101735.97;5497248;26;19995;-89
2024/04/19 00:35:19;;;;;;;;;;;;;;;8.40;100.00;101732.34;5496923;26;19934;-89
2024/04/19 00:37:44;;;;;;;;;;;;;;;8.38;100.00;101727.94;5529377;26;19939;-90
2024/04/19 00:40:10;;;;;;;;;;;;;;;8.39;100.00;101731.50;5466850;26;19927;-90
2024/04/19 00:42:36;;;;;;;;;;;;;;;8.40;100.00;101729.66;5529460;26;19931;-90
2024/04/19 00:45:02;;;;;;;;;;;;;;;8.40;100.00;101735.03;5497266;26;20366;-90
2024/04/19 00:47:28;;;;;;;;;;;;;;;8.42;100.00;101728.56;5527359;26;19934;-90
2024/04/19 00:49:53;;;;;;;;;;;;;;;8.41;100.00;101729.50;5496704;26;19955;-90
2024/04/19 00:52:19;;;;;;;;;;;;;;;8.43;100.00;101732.91;5466231;26;19928;-89
2024/04/19 00:54:44;;;;;;;;;;;;;;;8.44;100.00;101726.59;5496239;26;20361;-90
2024/04/19 00:57:10;;;;;;;;;;;;;;;8.44;100.00;101728.41;5496803;26;19935;-90
2024/04/19 00:59:35;;;;;;;;;;;;;;;8.44;100.00;101723.91;5496449;26;19935;-89
2024/04/19 01:02:01;;;;;;;;;;;;;;;8.44;100.00;101723.03;5527453;26;19928;-90
2024/04/19 01:04:27;;;;;;;;;;;;;;;8.44;100.00;101715.88;5496823;26;19927;-90
2024/04/19 01:06:52;;;;;;;;;;;;;;;8.44;100.00;101715.00;5497014;26;19928;-90
2024/04/19 01:09:18;;;;;;;;;;;;;;;8.40;100.00;101727.00;5496791;26;19947;-91
2024/04/19 01:11:43;;;;;;;;;;;;;;;8.33;100.00;101719.44;5496502;26;19943;-89
2024/04/19 01:14:09;;;;;;;;;;;;;;;8.25;100.00;101719.28;5465849;26;19995;-93
2024/04/19 01:16:35;;;;;;;;;;;;;;;8.17;100.00;101713.78;5496708;26;19934;-93
2024/04/19 01:19:01;;;;;;;;;;;;;;;8.10;100.00;101716.16;5496572;26;20409;-93
2024/04/19 01:21:27;;;;;;;;;;;;;;;8.08;100.00;101712.78;5496224;26;20364;-94
2024/04/19 01:23:56;;;;;;;;;;;;;;;8.11;100.00;101711.66;5526424;26;19927;-94
2024/04/19 01:26:21;;;;;;;;;;;;;;;8.13;100.00;101709.69;5466000;26;19996;-90
2024/04/19 01:28:47;;;;;;;;;;;;;;;8.14;100.00;101711.38;5496873;26;19935;-93
2024/04/19 01:31:12;;;;;;;;;;;;;;;8.16;100.00;101709.41;5529218;26;20426;-93
2024/04/19 01:33:38;;;;;;;;;;;;;;;8.17;100.00;101708.41;5527294;26;19932;-92
2024/04/19 01:36:03;;;;;;;;;;;;;;;8.18;100.00;101710.13;5496423;26;20366;-92
2024/04/19 01:38:29;;;;;;;;;;;;;;;8.20;100.00;101718.84;5527499;26;19939;-92
2024/04/19 01:40:55;;;;;;;;;;;;;;;8.24;100.00;101714.09;5526961;26;19934;-91
2024/04/19 01:43:20;;;;;;;;;;;;;;;8.25;100.00;101719.28;5496085;26;20023;-91
2024/04/19 01:45:46;;;;;;;;;;;;;;;8.27;100.00;101716.50;5496616;26;19928;-91
2024/04/19 01:48:11;;;;;;;;;;;;;;;8.28;100.00;101719.03;5465474;26;20277;-91
2024/04/19 01:50:37;;;;;;;;;;;;;;;8.29;100.00;101715.38;5496037;26;19939;-91
2024/04/19 01:53:02;;;;;;;;;;;;;;;8.29;100.00;101712.69;5496006;26;19995;-92
2024/04/19 01:55:29;;;;;;;;;;;;;;;8.29;100.00;101720.72;5495782;26;19927;-91
2024/04/19 01:57:54;;;;;;;;;;;;;;;8.30;100.00;101719.72;5526957;26;19928;-90
2024/04/19 02:00:20;;;;;;;;;;;;;;;8.32;100.00;101711.56;5496028;26;19934;-90
2024/04/19 02:02:45;;;;;;;;;;;;;;;8.32;100.00;101714.25;5496419;26;19939;-92
2024/04/19 02:05:11;;;;;;;;;;;;;;;8.31;100.00;101708.03;5496323;26;19982;-92
2024/04/19 02:07:37;;;;;;;;;;;;;;;8.31;100.00;101713.41;5495894;26;19995;-91
2024/04/19 02:10:02;;;;;;;;;;;;;;;8.30;100.00;101700.13;5495868;26;19940;-92
2024/04/19 02:12:28;;;;;;;;;;;;;;;8.31;100.00;101702.69;5465279;26;19927;-91
2024/04/19 02:14:53;;;;;;;;;;;;;;;8.30;100.00;101687.56;5526523;26;20346;-93
2024/04/19 02:17:19;;;;;;;;;;;;;;;8.28;100.00;101689.56;5465077;26;20335;-91
2024/04/19 02:19:44;;;;;;;;;;;;;;;8.26;100.00;101696.06;5495998;26;19934;-92
2024/04/19 02:22:10;;;;;;;;;;;;;;;8.21;100.00;101696.44;5514829;26;19919;-91
2024/04/19 02:24:36;;;;;;;;;;;;;;;8.20;100.00;101696.56;5519679;25;19927;-90
2024/04/19 02:27:04;;;;;;;;;;;;;;;8.19;100.00;101697.56;5550915;25;19928;-92
2024/04/19 02:32:14;;;;;;;;;;;;;;;8.17;100.00;101691.50;5528515;25;20004;-92
2024/04/19 02:34:40;;;;;;;;;;;;;;;8.17;100.00;101694.19;5497772;26;19927;-92
2024/04/19 02:37:06;;;;;;;;;;;;;;;8.18;100.00;101696.72;5469187;26;19934;-92
2024/04/19 02:39:31;;;;;;;;;;;;;;;8.19;100.00;101695.75;5469046;26;19927;-92
2024/04/19 02:41:57;;;;;;;;;;;;;;;8.19;100.00;101698.41;5499019;26;19932;-91
2024/04/19 02:44:23;;;;;;;;;;;;;;;8.20;100.00;101694.75;5529772;26;19943;-91
2024/04/19 02:46:50;;;;;;;;;;;;;;;8.20;100.00;101700.09;5469264;26;19936;-92
2024/04/19 02:49:15;;;;;;;;;;;;;;;8.20;100.00;101694.75;5498856;26;19960;-92
2024/04/19 02:51:41;;;;;;;;;;;;;;;8.19;100.00;101697.56;5468424;26;19939;-92
2024/04/19 02:54:07;;;;;;;;;;;;;;;8.19;100.00;101695.75;5498775;26;19934;-92
2024/04/19 02:56:32;;;;;;;;;;;;;;;8.18;100.00;101703.91;5498610;26;19935;-93
2024/04/19 02:58:58;;;;;;;;;;;;;;;8.16;100.00;101701.38;5468416;26;19935;-92
2024/04/19 03:01:24;;;;;;;;;;;;;;;8.16;100.00;101698.69;5469170;26;19939;-92
2024/04/19 03:03:49;;;;;;;;;;;;;;;8.13;100.00;101697.13;5498559;26;19935;-92
2024/04/19 03:06:15;;;;;;;;;;;;;;;8.12;100.00;101691.91;5498763;26;19939;-93
2024/04/19 03:08:42;;;;;;;;;;;;;;;8.09;100.00;101681.47;5468313;26;19927;-91
2024/04/19 03:11:08;;;;;;;;;;;;;;;8.04;100.00;101684.53;5468736;26;19999;-92
2024/04/19 03:13:33;;;;;;;;;;;;;;;8.01;100.00;101676.78;5498687;26;20394;-91
2024/04/19 03:16:07;;;;;;;;;;;;;;;8.00;100.00;101682.31;5467945;26;19995;-92
2024/04/19 03:18:32;;;;;;;;;;;;;;;7.98;100.00;101687.78;5498869;26;19935;-93
2024/04/19 03:20:59;;;;;;;;;;;;;;;8.00;100.00;101687.66;5468103;26;19928;-93
2024/04/19 03:23:25;;;;;;;;;;;;;;;8.00;100.00;101687.66;5468339;26;19931;-92
2024/04/19 03:25:51;;;;;;;;;;;;;;;7.98;100.00;101689.63;5467867;26;19944;-92
2024/04/19 03:28:16;;;;;;;;;;;;;;;7.99;100.00;101692.19;5498358;26;20254;-92
2024/04/19 03:30:42;;;;;;;;;;;;;;;7.99;100.00;101685.94;5467763;26;19973;-92
2024/04/19 03:33:07;;;;;;;;;;;;;;;7.99;100.00;101683.25;5467511;26;20350;-92
2024/04/19 03:35:33;;;;;;;;;;;;;;;7.96;100.00;101681.72;5528702;26;20027;-93
2024/04/19 03:37:58;;;;;;;;;;;;;;;7.93;100.00;101677.47;5528964;26;19967;-92
2024/04/19 03:40:24;;;;;;;;;;;;;;;7.91;100.00;101673.22;5498651;26;20279;-92
2024/04/19 03:42:54;;;;;;;;;;;;;;;7.91;100.00;101675.91;5531016;26;19927;-92
2024/04/19 03:48:06;;;;;;;;;;;;;;;7.90;100.00;101677.75;5544407;26;19931;-91
2024/04/19 03:50:31;;;;;;;;;;;;;;;7.91;100.00;101681.25;5505571;26;20383;-92
2024/04/19 03:52:57;;;;;;;;;;;;;;;7.92;100.00;101674.94;5499340;26;19935;-92
2024/04/19 03:55:23;;;;;;;;;;;;;;;7.93;100.00;101679.31;5467524;26;19927;-92
2024/04/19 03:57:48;;;;;;;;;;;;;;;7.95;100.00;101689.91;5498159;26;20321;-93
2024/04/19 04:00:14;;;;;;;;;;;;;;;7.96;100.00;101680.88;5497890;26;19931;-92
2024/04/19 04:02:40;;;;;;;;;;;;;;;7.98;100.00;101692.28;5467432;26;19967;-92
2024/04/19 04:05:05;;;;;;;;;;;;;;;7.99;100.00;101692.19;5467221;26;20358;-93
2024/04/19 04:07:31;;;;;;;;;;;;;;;8.00;100.00;101684.97;5497422;26;20362;-92
2024/04/19 04:09:56;;;;;;;;;;;;;;;8.00;100.00;101685.81;5497713;26;19995;-92
2024/04/19 04:12:22;;;;;;;;;;;;;;;8.01;100.00;101681.31;5497647;26;19927;-92
2024/04/19 04:14:47;;;;;;;;;;;;;;;7.99;100.00;101683.25;5467200;26;19927;-91
2024/04/19 04:17:13;;;;;;;;;;;;;;;7.96;100.00;101689.75;5467543;26;19939;-92
2024/04/19 04:19:38;;;;;;;;;;;;;;;7.93;100.00;101688.19;5467072;26;20365;-93
2024/04/19 04:22:04;;;;;;;;;;;;;;;7.90;100.00;101693.81;5497406;26;20378;-92
2024/04/19 04:24:30;;;;;;;;;;;;;;;7.92;100.00;101688.34;5497449;26;19934;-91
2024/04/19 04:26:55;;;;;;;;;;;;;;;7.88;100.00;101686.91;5497605;26;19939;-92
2024/04/19 04:29:21;;;;;;;;;;;;;;;7.86;100.00;101687.06;5497562;26;19927;-92
2024/04/19 04:31:47;;;;;;;;;;;;;;;7.84;100.00;101677.47;5497176;26;19927;-93
2024/04/19 04:34:12;;;;;;;;;;;;;;;7.84;100.00;101672.09;5497382;26;20358;-92
2024/04/19 04:36:38;;;;;;;;;;;;;;;7.80;100.00;101676.84;5467017;26;20295;-93
2024/04/19 04:39:05;;;;;;;;;;;;;;;7.77;100.00;101677.13;5472840;26;19923;-92
2024/04/19 04:41:30;;;;;;;;;;;;;;;7.77;100.00;101671.78;5491785;26;19972;-92
2024/04/19 04:43:56;;;;;;;;;;;;;;;7.77;100.00;101677.13;5521729;25;19931;-91
2024/04/19 04:46:21;;;;;;;;;;;;;;;7.78;100.00;101668.13;5491379;25;19920;-92
2024/04/19 04:48:47;;;;;;;;;;;;;;;7.79;100.00;101669.81;5505650;25;20295;-92
2024/04/19 04:51:13;;;;;;;;;;;;;;;7.81;100.00;101673.22;5498077;26;20258;-93
2024/04/19 04:53:38;;;;;;;;;;;;;;;7.83;100.00;101670.38;5497767;26;19932;-93
2024/04/19 04:56:04;;;;;;;;;;;;;;;7.86;100.00;101679.00;5466809;26;19939;-93
2024/04/19 04:58:29;;;;;;;;;;;;;;;7.87;100.00;101677.19;5466755;26;19943;-93
2024/04/19 05:00:58;;;;;;;;;;;;;;;7.90;100.00;101679.59;5497116;26;19995;-92
2024/04/19 05:03:23;;;;;;;;;;;;;;;7.88;100.00;101673.50;5497175;26;19929;-92
2024/04/19 05:05:49;;;;;;;;;;;;;;;7.90;100.00;101677.75;5497116;26;19996;-92
2024/04/19 05:08:15;;;;;;;;;;;;;;;7.91;100.00;101678.59;5466904;26;19935;-92
2024/04/19 05:10:40;;;;;;;;;;;;;;;7.91;100.00;101679.47;5467152;26;20369;-94
2024/04/19 05:13:06;;;;;;;;;;;;;;;7.92;100.00;101683.81;5496694;26;19928;-93
2024/04/19 05:15:32;;;;;;;;;;;;;;;7.94;100.00;101683.69;5496983;26;19959;-92
2024/04/19 05:17:57;;;;;;;;;;;;;;;7.93;100.00;101677.47;5466493;26;19939;-93
2024/04/19 05:20:23;;;;;;;;;;;;;;;7.93;100.00;101672.13;5466680;26;19928;-92
2024/04/19 05:22:48;;;;;;;;;;;;;;;7.96;100.00;101675.50;5496841;26;19934;-93
2024/04/19 05:25:15;;;;;;;;;;;;;;;7.97;100.00;101679.91;5466226;26;19933;-93
2024/04/19 05:27:42;;;;;;;;;;;;;;;7.96;100.00;101687.06;5496878;26;20242;-92
2024/04/19 05:30:08;;;;;;;;;;;;;;;8.01;100.00;101686.66;5466910;26;20422;-93
2024/04/19 05:32:33;;;;;;;;;;;;;;;8.02;100.00;101685.66;5496841;26;19939;-93
2024/04/19 05:34:59;;;;;;;;;;;;;;;8.03;100.00;101684.69;5527293;26;19927;-92
2024/04/19 05:37:24;;;;;;;;;;;;;;;8.06;100.00;101679.91;5497705;26;19936;-93
2024/04/19 05:39:50;;;;;;;;;;;;;;;8.12;100.00;101682.06;5466917;26;19971;-91
2024/04/19 05:42:16;;;;;;;;;;;;;;;8.16;100.00;101677.25;5497251;26;19927;-92
2024/04/19 05:44:41;;;;;;;;;;;;;;;8.19;100.00;101676.97;5467172;26;20347;-92
2024/04/19 05:47:09;;;;;;;;;;;;;;;8.21;100.00;101677.69;5496164;26;19931;-92
2024/04/19 05:49:34;;;;;;;;;;;;;;;8.28;100.00;101680.66;5495502;26;19995;-93
2024/04/19 05:52:00;;;;;;;;;;;;;;;8.29;100.00;101677.84;5465861;26;19941;-92
2024/04/19 05:54:26;;;;;;;;;;;;;;;8.32;100.00;101684.78;5498052;26;19933;-92
2024/04/19 05:56:52;;;;;;;;;;;;;;;8.35;100.00;101685.34;5470158;26;19939;-92
2024/04/19 05:59:17;;;;;;;;;;;;;;;8.37;100.00;101696.75;5510014;26;19936;-91
2024/04/19 06:01:45;;;;;;;;;;;;;;;8.37;100.00;101698.59;5514028;25;19931;-92
2024/04/19 06:04:10;;;;;;;;;;;;;;;8.41;100.00;101705.41;5483549;26;19928;-92
2024/04/19 06:06:36;;;;;;;;;;;;;;;8.44;100.00;101693.56;5468748;26;19995;-92
2024/04/19 06:09:02;;;;;;;;;;;;;;;8.43;100.00;101698.06;5472258;26;19927;-92
2024/04/19 06:11:27;;;;;;;;;;;;;;;8.48;100.00;101703.03;5470525;26;19934;-92
2024/04/19 06:13:53;;;;;;;;;;;;;;;8.46;100.00;101699.63;5500107;26;20323;-92
2024/04/19 06:16:18;;;;;;;;;;;;;;;8.56;100.00;101703.16;5470994;26;19927;-92
2024/04/19 06:18:44;;;;;;;;;;;;;;;8.60;100.00;101701.91;5471304;26;19934;-92
2024/04/19 06:21:09;;;;;;;;;;;;;;;8.66;100.00;101703.19;5500262;26;19934;-92
2024/04/19 06:23:35;;;;;;;;;;;;;;;8.68;100.00;101702.06;5499411;26;19935;-92
2024/04/19 06:26:04;;;;;;;;;;;;;;;8.68;100.00;101704.75;5498963;26;19935;-92
2024/04/19 06:28:32;;;;;;;;;;;;;;;8.67;100.00;101705.72;5468620;26;19935;-92
2024/04/19 06:31:10;;;;;;;;;;;;;;;8.76;100.00;101707.56;5499999;26;19928;-92
2024/04/19 06:33:36;;;;;;;;;;;;;;;8.79;100.00;101711.81;5499057;26;19939;-92
2024/04/19 06:36:09;;;;;;;;;;;;;;;8.86;100.00;101712.06;5529919;26;19933;-92
2024/04/19 06:38:35;;;;;;;;;;;;;;;8.88;100.00;101710.94;5498964;26;19931;-92
2024/04/19 06:41:00;;;;;;;;;;;;;;;8.89;100.00;101711.78;5498806;26;19931;-94
2024/04/19 06:43:26;;;;;;;;;;;;;;;8.96;100.00;101705.72;5468599;26;19963;-92
2024/04/19 06:45:52;;;;;;;;;;;;;;;9.00;100.00;101706.28;5529560;26;19927;-93
2024/04/19 06:48:17;;;;;;;;;;;;;;;9.04;100.00;101710.38;5468487;26;19936;-93
2024/04/19 06:50:46;;;;;;;;;;;;;;;9.06;100.00;101712.94;5468281;26;19942;-92
2024/04/19 06:53:11;;;;;;;;;;;;;;;9.10;100.00;101709.78;5469060;26;19927;-92
2024/04/19 06:55:37;;;;;;;;;;;;;;;9.20;100.00;101718.69;5529500;26;19935;-92
2024/04/19 06:58:02;;;;;;;;;;;;;;;9.31;100.00;101716.84;5498699;26;19935;-93
2024/04/19 07:00:28;;;;;;;;;;;;;;;9.43;100.00;101713.00;5479667;26;19935;-90
2024/04/19 07:02:54;;;;;;;;;;;;;;;9.56;100.00;101707.31;5521714;25;19927;-92
2024/04/19 07:05:19;;;;;;;;;;;;;;;9.68;100.00;101714.19;5553807;25;19965;-90
2024/04/19 07:07:51;;;;;;;;;;;;;;;9.82;100.00;101715.56;5518510;25;19975;-92
2024/04/19 07:10:16;;;;;;;;;;;;;;;9.84;100.00;101713.56;5500485;26;19959;-93
2024/04/19 07:12:42;;;;;;;;;;;;;;;9.89;100.00;101705.91;5500155;26;19934;-92
2024/04/19 07:15:07;;;;;;;;;;;;;;;10.01;100.00;101715.47;5468720;26;20285;-93
2024/04/19 07:17:33;;;;;;;;;;;;;;;10.01;100.00;101720.84;5468636;26;19935;-93
2024/04/19 07:19:59;;;;;;;;;;;;;;;10.05;100.00;101724.91;5468675;26;19935;-93
2024/04/19 07:22:25;;;;;;;;;;;;;;;10.14;100.00;101725.88;5468110;26;19943;-93
2024/04/19 07:24:50;;;;;;;;;;;;;;;10.25;100.00;101717.63;5529701;26;19935;-93
2024/04/19 07:27:16;;;;;;;;;;;;;;;10.33;100.00;101717.75;5498690;26;19928;-92
2024/04/19 07:29:41;;;;;;;;;;;;;;;10.46;100.00;101724.59;5497873;26;19934;-93
2024/04/19 07:32:07;;;;;;;;;;;;;;;10.52;100.00;101718.63;5498119;26;20001;-92
2024/04/19 07:34:32;;;;;;;;;;;;;;;10.71;100.00;101706.88;5498534;26;19928;-93
2024/04/19 07:36:58;;;;;;;;;;;;;;;10.87;100.00;101731.22;5467672;26;20740;-93
2024/04/19 07:39:23;;;;;;;;;;;;;;;10.87;100.00;101733.91;5467599;26;19928;-93
2024/04/19 07:41:49;;;;;;;;;;;;;;;11.06;100.00;101732.06;5530467;26;19927;-92
2024/04/19 07:44:14;;;;;;;;;;;;;;;11.01;100.00;101724.47;5467540;26;19928;-92
2024/04/19 07:46:40;;;;;;;;;;;;;;;11.07;100.00;101725.69;5467287;26;19938;-92
2024/04/19 07:49:06;;;;;;;;;;;;;;;10.95;100.00;101730.47;5497855;26;20266;-93
2024/04/19 07:51:31;;;;;;;;;;;;;;;10.94;100.00;101729.63;5528641;26;19996;-93
2024/04/19 07:53:57;;;;;;;;;;;;;;;10.94;100.00;101724.25;5467548;26;19936;-93
2024/04/19 07:56:24;;;;;;;;;;;;;;;11.00;100.00;101731.69;5497898;26;19969;-93
2024/04/19 07:58:49;;;;;;;;;;;;;;;11.01;100.00;101743.31;5528808;26;19932;-94
2024/04/19 08:01:15;;;;;;;;;;;;;;;11.09;100.00;101739.84;5467669;26;19995;-94
2024/04/19 08:03:41;;;;;;;;;;;;;;;11.28;100.00;101745.06;5528870;26;19939;-93
2024/04/19 08:06:07;;;;;;;;;;;;;;;11.33;100.00;101740.03;5529090;26;20298;-93
2024/04/19 08:08:35;;;;;;;;;;;;;;;11.65;100.00;101747.50;5498340;26;19928;-93
2024/04/19 08:11:01;;;;;;;;;;;;;;;11.87;100.00;101756.91;5498491;26;20381;-94
2024/04/19 08:13:27;;;;;;;;;;;;;;;12.09;100.00;101758.22;5469198;26;20259;-92
2024/04/19 08:15:52;;;;;;;;;;;;;;;12.28;100.00;101761.69;5468573;26;20430;-92
2024/04/19 08:18:18;;;;;;;;;;;;;;;12.30;100.00;101770.44;5499105;26;20009;-93
2024/04/19 08:20:43;;;;;;;;;;;;;;;12.39;100.00;101764.06;5466862;26;20261;-89
2024/04/19 08:23:09;;;;;;;;;;;;;;;12.61;100.00;101761.78;5528038;26;19927;-88
2024/04/19 08:25:34;;;;;;;;;;;;;;;12.81;100.00;101760.47;5497510;26;20369;-89
2024/04/19 08:28:00;;;;;;;;;;;;;;;12.73;100.00;101761.31;5467205;26;19939;-89
2024/04/19 08:30:26;;;;;;;;;;;;;;;12.69;100.00;101753.69;5496797;26;19935;-89
2024/04/19 08:32:51;;;;;;;;;;;;;;;12.73;100.00;101758.59;5526401;26;19927;-89
2024/04/19 08:35:17;;;;;;;;;;;;;;;13.15;100.00;101757.66;5465968;26;19935;-89
2024/04/19 08:37:42;;;;;;;;;;;;;;;13.70;100.00;101750.69;5496336;26;20254;-88
2024/04/19 08:40:17;;;;;;;;;;;;;;;15.26;100.00;101739.91;5496168;26;20266;-89
2024/04/19 08:42:43;;;;;;;;;;;;;;;15.08;100.00;101751.09;5466210;26;20000;-89
2024/04/19 08:45:09;;;;;;;;;;;;;;;14.75;100.00;101758.59;5468070;26;20370;-89
2024/04/19 08:47:35;;;;;;;;;;;;;;;14.77;100.00;101753.84;5496911;26;19939;-89
2024/04/19 08:50:04;;;;;;;;;;;;;;;14.32;100.00;101752.69;5466176;26;19927;-89
2024/04/19 08:52:29;;;;;;;;;;;;;;;14.07;100.00;101755.47;5496098;26;19927;-89
2024/04/19 08:54:56;;;;;;;;;;;;;;;13.83;100.00;101756.41;5496182;26;20324;-89
2024/04/19 08:57:22;;;;;;;;;;;;;;;13.64;100.00;101763.03;5496439;26;19934;-90
2024/04/19 08:59:47;;;;;;;;;;;;;;;13.60;100.00;101764.41;5496434;26;19927;-89
2024/04/19 09:02:13;;;;;;;;;;;;;;;13.48;100.00;101775.75;5526751;26;19935;-88
2024/04/19 09:04:39;;;;;;;;;;;;;;;13.60;100.00;101766.25;5465300;26;20249;-88
2024/04/19 09:07:04;;;;;;;;;;;;;;;13.55;100.00;101772.19;5495730;26;20250;-88
2024/04/19 09:09:30;;;;;;;;;;;;;;;13.36;100.00;101777.91;5465333;26;19939;-88
2024/04/19 09:11:55;;;;;;;;;;;;;;;13.43;100.00;101773.53;5526673;26;19935;-88
2024/04/19 09:14:20;;;;;;;;;;;;;;;13.50;100.00;101773.72;5495809;26;19928;-88
2024/04/19 09:16:47;;;;;;;;;;;;;;;14.25;100.00;101770.66;5465293;26;20267;-88
2024/04/19 09:19:12;;;;;;;;;;;;;;;15.25;100.00;101773.47;5495715;26;20258;-88
2024/04/19 09:21:38;;;;;;;;;;;;;;;16.13;100.00;101780.06;5527358;26;20375;-89
2024/04/19 09:24:08;;;;;;;;;;;;;;;16.57;100.00;101784.59;5529265;26;19927;-88
2024/04/19 09:26:34;;;;;;;;;;;;;;;16.82;100.00;101778.84;5498321;26;19999;-88
2024/04/19 09:29:00;;;;;;;;;;;;;;;16.52;94.81;101789.75;5530226;26;19927;-88
2024/04/19 09:31:26;;;;;;;;;;;;;;;16.16;96.46;101785.09;5502337;25;19955;-87
2024/04/19 09:33:54;;;;;;;;;;;;;;;15.95;96.01;101785.00;5520751;25;19926;-86
2024/04/19 09:36:20;;;;;;;;;;;;;;;16.33;95.88;101785.78;5550380;25;19920;-89
2024/04/19 09:38:45;;;;;;;;;;;;;;;16.77;93.29;101781.28;5465102;26;20386;-89
2024/04/19 09:41:14;;;;;;;;;;;;;;;17.65;84.49;101784.63;5495409;26;19953;-88
2024/04/19 09:43:39;;;;;;;;;;;;;;;17.33;81.78;101774.16;5463743;26;19939;-89
2024/04/19 09:46:05;;;;;;;;;;;;;;;17.28;81.26;101783.91;5526069;26;20062;-88
2024/04/19 09:48:33;;;;;;;;;;;;;;;16.98;82.89;101783.22;5464857;26;19934;-88
2024/04/19 09:50:58;;;;;;;;;;;;;;;17.76;79.85;101778.66;5495636;26;19934;-89
2024/04/19 09:53:26;;;;;;;;;;;;;;;18.22;76.41;101791.75;5465759;26;19928;-88
2024/04/19 09:55:51;;;;;;;;;;;;;;;17.51;77.13;101786.41;5495215;26;19935;-90
2024/04/19 09:58:18;;;;;;;;;;;;;;;17.16;79.93;101788.19;5526174;26;19928;-86
2024/04/19 10:00:46;;;;;;;;;;;;;;;17.44;80.68;101794.53;5496072;26;19936;-87
2024/04/19 10:03:14;;;;;;;;;;;;;;;17.43;78.66;101792.84;5496500;26;20291;-88
2024/04/19 10:05:39;;;;;;;;;;;;;;;17.46;79.80;101788.88;5496178;26;19928;-88
2024/04/19 10:08:05;;;;;;;;;;;;;;;17.94;79.81;101794.50;5494464;26;19927;-87
2024/04/19 10:10:30;;;;;;;;;;;;;;;18.08;74.45;101790.84;5494272;26;19934;-87
2024/04/19 10:12:56;;;;;;;;;;;;;;;17.91;74.34;101793.00;5495347;26;20361;-88
2024/04/19 10:15:21;;;;;;;;;;;;;;;17.71;75.13;101790.13;5495171;26;20238;-89
2024/04/19 10:17:47;;;;;;;;;;;;;;;17.13;79.24;101792.97;5497082;26;19927;-88
2024/04/19 10:20:13;;;;;;;;;;;;;;;16.64;81.28;101795.53;5468026;26;19934;-89
2024/04/19 10:22:40;;;;;;;;;;;;;;;16.34;84.63;101798.31;5512906;25;19920;-88
2024/04/19 10:25:05;;;;;;;;;;;;;;;16.25;87.53;101799.44;5511938;25;20246;-88
2024/04/19 10:27:32;;;;;;;;;;;;;;;16.70;84.33;101803.78;5525499;26;19949;-88
2024/04/19 10:29:59;;;;;;;;;;;;;;;16.70;84.03;101801.06;5494446;26;19927;-88
2024/04/19 10:32:24;;;;;;;;;;;;;;;16.59;83.87;101806.13;5525509;26;19940;-87
2024/04/19 10:34:53;;;;;;;;;;;;;;;16.60;83.82;101805.94;5494181;26;19927;-89
2024/04/19 10:37:19;;;;;;;;;;;;;;;16.48;85.47;101810.16;5463540;26;19962;-88
2024/04/19 10:39:45;;;;;;;;;;;;;;;16.21;85.43;101796.25;5463878;26;19927;-87
2024/04/19 10:42:10;;;;;;;;;;;;;;;16.38;85.16;101804.19;5493656;26;20294;-87
2024/04/19 10:44:39;;;;;;;;;;;;;;;16.64;84.01;101798.25;5463184;26;19995;-87
2024/04/19 10:47:05;;;;;;;;;;;;;;;16.64;84.17;101798.25;5493670;26;20262;-88
2024/04/19 10:49:31;;;;;;;;;;;;;;;17.01;83.68;101799.13;5493866;26;19938;-88
2024/04/19 10:51:58;;;;;;;;;;;;;;;17.09;81.11;101797.13;5463580;26;20243;-88
2024/04/19 10:54:24;;;;;;;;;;;;;;;17.35;80.23;101803.84;5494292;26;19927;-88
2024/04/19 10:56:50;;;;;;;;;;;;;;;17.87;74.34;101799.91;5530015;26;19927;-87
2024/04/19 10:59:15;;;;;;;;;;;;;;;18.28;73.73;101796.38;5497383;26;20004;-89
2024/04/19 11:01:42;;;;;;;;;;;;;;;17.98;74.11;101806.69;5466911;26;19976;-92
2024/04/19 11:04:08;;;;;;;;;;;;;;;17.35;78.06;101798.41;5528201;26;20362;-88
2024/04/19 11:06:34;;;;;;;;;;;;;;;17.95;75.37;101797.03;5528118;26;19932;-87
2024/04/19 11:08:59;;;;;;;;;;;;;;;19.48;68.65;101797.56;5466913;26;19935;-88
2024/04/19 11:11:25;;;;;;;;;;;;;;;-146.42;100.00;66673.91;5497223;26;19934;-86
2024/04/19 11:13:50;;;;;;;;;;;;;;;-146.42;100.00;66673.91;5528033;26;20231;-89
2024/04/19 11:16:16;;;;;;;;;;;;;;;-146.42;100.00;66673.91;5466848;26;19928;-88
2024/04/19 11:18:42;;;;;;;;;;;;;;;20.19;59.73;101807.81;5466601;26;19934;-87
2024/04/19 11:21:08;;;;;;;;;;;;;;;18.46;65.43;101802.13;5527536;26;20366;-88
2024/04/19 11:23:35;;;;;;;;;;;;;;;17.35;72.29;101798.41;5467656;26;19935;-87
2024/04/19 11:26:01;;;;;;;;;;;;;;;18.18;72.96;101804.09;5527604;26;19939;-88
2024/04/19 11:28:26;;;;;;;;;;;;;;;19.30;64.77;101800.91;5464028;26;20255;-89
2024/04/19 11:30:52;;;;;;;;;;;;;;;19.99;62.08;101809.75;5500256;26;19928;-86
2024/04/19 11:33:17;;;;;;;;;;;;;;;-146.42;100.00;66673.91;5469195;26;19931;-86
2024/04/19 11:35:43;;;;;;;;;;;;;;;20.01;61.07;101812.28;5496877;26;20274;-86
2024/04/19 11:38:15;;;;;;;;;;;;;;;19.17;63.42;101810.97;5497024;26;19954;-87
2024/04/19 11:40:41;;;;;;;;;;;;;;;18.64;67.04;101806.19;5527867;26;19935;-87
2024/04/19 11:43:06;;;;;;;;;;;;;;;18.06;69.47;101802.97;5466382;26;19927;-88
2024/04/19 11:45:32;;;;;;;;;;;;;;;17.34;75.20;101803.00;5466567;26;19934;-86
2024/04/19 11:47:58;;;;;;;;;;;;;;;16.90;77.24;101797.75;5496851;26;20277;-90
2024/04/19 11:50:24;;;;;;;;;;;;;;;18.33;74.43;101803.94;5497176;26;19951;-90
2024/04/19 11:52:51;;;;;;;;;;;;;;;18.33;74.43;101803.94;5527863;26;20446;-91
2024/04/19 11:55:17;;;;;;;;;;;;;;;-146.42;100.00;66673.91;5497095;26;19931;-91
2024/04/19 11:57:43;;;;;;;;;;;;;;;20.75;58.00;101792.69;5501641;26;19968;-89
2024/04/19 12:00:10;;;;;;;;;;;;;;;19.98;60.00;101802.63;5508165;25;19920;-90
2024/04/19 12:02:35;;;;;;;;;;;;;;;18.77;63.86;101806.25;5553048;25;19927;-90
2024/04/19 12:05:01;;;;;;;;;;;;;;;17.55;68.99;101795.88;5542045;25;19936;-92
2024/04/19 12:07:26;;;;;;;;;;;;;;;16.85;75.00;101792.88;5495989;26;19935;-91
2024/04/19 12:09:55;;;;;;;;;;;;;;;16.41;78.24;101811.97;5527858;26;20273;-92
2024/04/19 12:12:21;;;;;;;;;;;;;;;16.32;78.48;101810.38;5497262;26;19928;-91
2024/04/19 12:14:48;;;;;;;;;;;;;;;16.88;76.11;101806.09;5466623;26;19932;-91
2024/04/19 12:17:15;;;;;;;;;;;;;;;17.58;72.57;101804.47;5496674;26;20223;-91
2024/04/19 12:19:41;;;;;;;;;;;;;;;17.49;73.29;101804.78;5466536;26;19931;-91
2024/04/19 12:22:06;;;;;;;;;;;;;;;17.27;74.38;101803.97;5503582;26;19927;-91
2024/04/19 12:24:36;;;;;;;;;;;;;;;17.83;71.32;101804.06;5509007;26;19927;-92
2024/04/19 12:27:04;;;;;;;;;;;;;;;18.05;70.23;101801.25;5546071;26;19934;-92
2024/04/19 12:29:33;;;;;;;;;;;;;;;17.96;69.80;101803.31;5489585;26;19932;-92
2024/04/19 12:31:59;;;;;;;;;;;;;;;17.93;70.67;101809.16;5531600;26;20257;-91
2024/04/19 12:34:26;;;;;;;;;;;;;;;17.88;71.69;101808.91;5496747;26;19935;-92